Time,TemperatureF,DewpointF,PressureIn,WindDirection,WindDirectionDegrees,WindSpeedMPH,WindSpeedGustMPH,Humidity,HourlyPrecipIn,Conditions,Clouds,dailyrainin,SoftwareType,DateUTC
2013-05-23 00:00:00,75.9,34.8,29.82,NNE,22,1.4,2.2,22,-99.99,,,-99.99,tws,2013-05-23 07:00:00,
2013-05-23 00:10:00,75.4,34.8,29.82,NE,45,0.8,1.7,22,-99.99,,,-99.99,tws,2013-05-23 07:10:00,
2013-05-23 00:20:00,74.8,35.6,29.82,ENE,67,0.0,0.0,23,-99.99,,,-99.99,tws,2013-05-23 07:20:00,
2013-05-23 00:30:00,74.0,35.6,29.83,ESE,112,0.7,2.2,24,-99.99,,,-99.99,tws,2013-05-23 07:30:00,
2013-05-23 00:40:00,73.5,34.6,29.82,ESE,112,1.0,3.2,23,-99.99,,,-99.99,tws,2013-05-23 07:40:00,
2013-05-23 00:50:00,73.2,34.5,29.82,East,90,2.2,4.0,23,-99.99,,,-99.99,tws,2013-05-23 07:50:00,
2013-05-23 01:00:00,73.2,34.3,29.82,SE,135,3.3,4.6,23,-99.99,,,-99.99,tws,2013-05-23 08:00:00,
2013-05-23 01:10:00,73.6,34.5,29.82,East,90,2.7,3.5,23,-99.99,,,-99.99,tws,2013-05-23 08:10:00,
2013-05-23 01:20:00,74.0,34.9,29.82,SSE,157,2.4,3.6,23,-99.99,,,-99.99,tws,2013-05-23 08:20:00,
2013-05-23 01:30:00,74.1,35.1,29.82,ESE,112,2.7,4.0,23,-99.99,,,-99.99,tws,2013-05-23 08:30:00,
2013-05-23 01:40:00,74.2,35.2,29.82,South,180,2.4,3.3,23,-99.99,,,-99.99,tws,2013-05-23 08:40:00,
2013-05-23 01:50:00,74.0,35.0,29.82,SSE,157,2.0,2.7,23,-99.99,,,-99.99,tws,2013-05-23 08:50:00,
2013-05-23 02:00:00,73.7,34.9,29.82,South,180,1.5,1.9,23,-99.99,,,-99.99,tws,2013-05-23 09:00:00,
2013-05-23 02:10:00,73.2,34.9,29.82,South,180,1.2,2.7,24,-99.99,,,-99.99,tws,2013-05-23 09:10:00,
2013-05-23 02:20:00,72.6,34.7,29.82,SW,225,1.4,3.9,24,-99.99,,,-99.99,tws,2013-05-23 09:20:00,
2013-05-23 02:30:00,72.3,34.9,29.82,South,180,1.3,2.0,25,-99.99,,,-99.99,tws,2013-05-23 09:30:00,
2013-05-23 02:40:00,71.9,35.2,29.82,SW,225,0.9,2.2,25,-99.99,,,-99.99,tws,2013-05-23 09:40:00,
2013-05-23 02:50:00,71.5,35.8,29.82,SSW,202,0.5,1.8,26,-99.99,,,-99.99,tws,2013-05-23 09:50:00,
2013-05-23 03:00:00,71.2,35.9,29.82,East,90,1.6,3.9,27,-99.99,,,-99.99,tws,2013-05-23 10:00:00,
2013-05-23 03:10:00,71.3,36.2,29.82,SE,135,2.7,6.4,27,-99.99,,,-99.99,tws,2013-05-23 10:10:00,
2013-05-23 03:20:00,71.8,36.2,29.82,East,90,3.0,4.9,26,-99.99,,,-99.99,tws,2013-05-23 10:20:00,
2013-05-23 03:30:00,72.5,36.4,29.83,ESE,112,4.6,6.0,26,-99.99,,,-99.99,tws,2013-05-23 10:30:00,
2013-05-23 03:40:00,73.4,36.3,29.82,East,90,5.1,6.5,25,-99.99,,,-99.99,tws,2013-05-23 10:40:00,
2013-05-23 03:50:00,73.7,36.2,29.83,SE,135,2.5,3.3,25,-99.99,,,-99.99,tws,2013-05-23 10:50:00,
2013-05-23 04:00:00,73.4,36.0,29.83,SE,135,2.3,3.1,25,-99.99,,,-99.99,tws,2013-05-23 11:00:00,
2013-05-23 04:10:00,72.9,36.0,29.83,ENE,67,2.5,3.1,25,-99.99,,,-99.99,tws,2013-05-23 11:10:00,
2013-05-23 04:20:00,72.3,35.9,29.82,SE,135,2.4,3.6,26,-99.99,,,-99.99,tws,2013-05-23 11:20:00,
2013-05-23 04:30:00,72.0,36.1,29.82,ENE,67,3.2,4.8,26,-99.99,,,-99.99,tws,2013-05-23 11:30:00,
2013-05-23 04:40:00,72.1,36.0,29.83,East,90,4.7,5.4,26,-99.99,,,-99.99,tws,2013-05-23 11:40:00,
2013-05-23 04:50:00,72.2,36.1,29.82,ENE,67,3.4,4.4,26,-99.99,,,-99.99,tws,2013-05-23 11:50:00,
2013-05-23 05:00:00,72.4,36.2,29.83,East,90,3.2,4.1,26,-99.99,,,-99.99,tws,2013-05-23 12:00:00,
2013-05-23 05:10:00,72.4,36.3,29.83,ESE,112,3.3,4.4,26,-99.99,,,-99.99,tws,2013-05-23 12:10:00,
2013-05-23 05:20:00,72.5,36.1,29.82,East,90,4.0,4.5,26,-99.99,,,-99.99,tws,2013-05-23 12:20:00,
2013-05-23 05:30:00,72.5,36.2,29.82,ESE,112,3.3,3.9,26,-99.99,,,-99.99,tws,2013-05-23 12:30:00,
2013-05-23 05:40:00,72.5,36.2,29.81,ESE,112,2.9,3.8,26,-99.99,,,-99.99,tws,2013-05-23 12:40:00,
2013-05-23 05:50:00,72.1,36.6,29.83,SSE,157,2.5,3.5,26,-99.99,,,-99.99,tws,2013-05-23 12:50:00,
2013-05-23 06:00:00,71.7,36.5,29.83,ESE,112,2.6,3.9,27,-99.99,,,-99.99,tws,2013-05-23 13:00:00,
2013-05-23 06:10:00,71.3,36.6,29.84,SW,225,1.7,3.0,27,-99.99,,,-99.99,tws,2013-05-23 13:10:00,
2013-05-23 06:20:00,71.0,37.4,29.84,South,180,3.2,4.2,28,-99.99,,,-99.99,tws,2013-05-23 13:20:00,
2013-05-23 06:30:00,70.8,37.1,29.85,West,270,3.5,4.4,28,-99.99,,,-99.99,tws,2013-05-23 13:30:00,
2013-05-23 06:40:00,71.0,37.1,29.84,SW,225,3.9,5.0,28,-99.99,,,-99.99,tws,2013-05-23 13:40:00,
2013-05-23 06:50:00,71.4,37.6,29.85,South,180,2.9,4.0,28,-99.99,,,-99.99,tws,2013-05-23 13:50:00,
2013-05-23 07:00:00,71.7,37.7,29.86,SW,225,2.9,4.3,28,-99.99,,,-99.99,tws,2013-05-23 14:00:00,
2013-05-23 07:10:00,71.7,37.6,29.86,South,180,3.4,4.4,28,-99.99,,,-99.99,tws,2013-05-23 14:10:00,
2013-05-23 07:20:00,71.9,38.0,29.86,South,180,3.0,5.1,28,-99.99,,,-99.99,tws,2013-05-23 14:20:00,
2013-05-23 07:30:00,72.3,38.5,29.87,SE,135,2.8,3.5,28,-99.99,,,-99.99,tws,2013-05-23 14:30:00,
2013-05-23 07:40:00,72.9,38.9,29.87,SSE,157,1.6,2.9,28,-99.99,,,-99.99,tws,2013-05-23 14:40:00,
2013-05-23 07:50:00,73.6,39.7,29.88,South,180,3.0,5.5,28,-99.99,,,-99.99,tws,2013-05-23 14:50:00,
2013-05-23 08:00:00,74.7,40.3,29.88,East,90,4.5,7.1,28,-99.99,,,-99.99,tws,2013-05-23 15:00:00,
2013-05-23 08:10:00,76.1,40.0,29.88,NE,45,4.6,6.1,26,-99.99,,,-99.99,tws,2013-05-23 15:10:00,
2013-05-23 08:20:00,77.7,40.0,29.89,NE,45,4.8,7.1,25,-99.99,,,-99.99,tws,2013-05-23 15:20:00,
2013-05-23 08:30:00,78.9,40.5,29.89,ENE,67,5.4,6.7,25,-99.99,,,-99.99,tws,2013-05-23 15:30:00,
2013-05-23 08:40:00,79.6,40.8,29.89,South,180,4.5,6.9,24,-99.99,,,-99.99,tws,2013-05-23 15:40:00,
2013-05-23 08:50:00,80.4,39.4,29.89,East,90,6.2,10.5,22,-99.99,,,-99.99,tws,2013-05-23 15:50:00,
2013-05-23 09:00:00,81.5,39.5,29.89,East,90,6.1,8.9,22,-99.99,,,-99.99,tws,2013-05-23 16:00:00,
2013-05-23 09:10:00,82.5,39.2,29.90,ENE,67,6.5,7.6,21,-99.99,,,-99.99,tws,2013-05-23 16:10:00,
2013-05-23 09:20:00,83.7,37.4,29.90,East,90,7.9,10.8,18,-99.99,,,-99.99,tws,2013-05-23 16:20:00,
2013-05-23 09:30:00,84.4,36.6,29.89,ESE,112,8.1,11.9,17,-99.99,,,-99.99,tws,2013-05-23 16:30:00,
2013-05-23 09:40:00,84.9,36.8,29.88,East,90,8.8,12.8,17,-99.99,,,-99.99,tws,2013-05-23 16:40:00,
2013-05-23 09:50:00,85.1,36.0,29.88,ENE,67,8.3,9.6,17,-99.99,,,-99.99,tws,2013-05-23 16:50:00,
2013-05-23 10:00:00,85.3,36.2,29.89,North,360,8.0,11.7,17,-99.99,,,-99.99,tws,2013-05-23 17:00:00,
2013-05-23 10:10:00,85.6,35.9,29.88,East,90,8.5,10.5,16,-99.99,,,-99.99,tws,2013-05-23 17:10:00,
2013-05-23 10:20:00,86.1,36.2,29.88,East,90,7.2,8.5,16,-99.99,,,-99.99,tws,2013-05-23 17:20:00,
2013-05-23 10:30:00,86.3,36.8,29.88,East,90,7.2,9.1,16,-99.99,,,-99.99,tws,2013-05-23 17:30:00,
2013-05-23 10:40:00,86.7,36.7,29.89,NE,45,5.7,8.2,16,-99.99,,,-99.99,tws,2013-05-23 17:40:00,
2013-05-23 10:50:00,87.1,36.7,29.88,SE,135,6.7,9.6,16,-99.99,,,-99.99,tws,2013-05-23 17:50:00,
2013-05-23 11:00:00,87.4,38.2,29.88,SSE,157,5.5,7.6,17,-99.99,,,-99.99,tws,2013-05-23 18:00:00,
2013-05-23 11:10:00,87.8,38.1,29.87,NE,45,6.5,9.1,16,-99.99,,,-99.99,tws,2013-05-23 18:10:00,
2013-05-23 11:20:00,88.0,37.8,29.87,NE,45,5.9,10.7,16,-99.99,,,-99.99,tws,2013-05-23 18:20:00,
2013-05-23 11:30:00,87.9,38.8,29.87,North,0,5.2,8.8,17,-99.99,,,-99.99,tws,2013-05-23 18:30:00,
2013-05-23 11:40:00,88.3,38.9,29.87,ESE,112,6.8,9.9,17,-99.99,,,-99.99,tws,2013-05-23 18:40:00,
2013-05-23 11:50:00,88.6,37.5,29.87,SE,135,7.9,12.8,16,-99.99,,,-99.99,tws,2013-05-23 18:50:00,
2013-05-23 12:00:00,89.1,38.2,29.87,SE,135,6.4,8.6,16,-99.99,,,-99.99,tws,2013-05-23 19:00:00,
2013-05-23 12:10:00,89.7,37.9,29.87,NE,45,6.6,7.7,15,-99.99,,,-99.99,tws,2013-05-23 19:10:00,
2013-05-23 12:20:00,90.2,38.0,29.87,East,90,5.4,7.0,15,-99.99,,,-99.99,tws,2013-05-23 19:20:00,
2013-05-23 12:30:00,90.7,37.8,29.87,East,90,6.9,8.2,15,-99.99,,,-99.99,tws,2013-05-23 19:30:00,
2013-05-23 12:40:00,91.1,37.3,29.87,ENE,67,6.9,10.7,14,-99.99,,,-99.99,tws,2013-05-23 19:40:00,
2013-05-23 12:50:00,91.3,37.6,29.87,East,90,4.0,5.9,14,-99.99,,,-99.99,tws,2013-05-23 19:50:00,
2013-05-23 13:00:00,91.7,37.5,29.87,East,90,5.4,7.6,14,-99.99,,,-99.99,tws,2013-05-23 20:00:00,
2013-05-23 13:10:00,92.3,38.2,29.87,ESE,112,6.7,8.7,14,-99.99,,,-99.99,tws,2013-05-23 20:10:00,
2013-05-23 13:20:00,92.9,38.4,29.87,East,90,7.5,10.1,14,-99.99,,,-99.99,tws,2013-05-23 20:20:00,
2013-05-23 13:30:00,93.3,38.0,29.86,East,90,6.2,8.9,14,-99.99,,,-99.99,tws,2013-05-23 20:30:00,
2013-05-23 13:40:00,93.5,37.9,29.86,East,90,6.8,11.2,13,-99.99,,,-99.99,tws,2013-05-23 20:40:00,
2013-05-23 13:50:00,93.8,38.0,29.85,East,90,7.0,9.2,13,-99.99,,,-99.99,tws,2013-05-23 20:50:00,
2013-05-23 14:00:00,94.0,38.1,29.84,NE,45,5.7,9.5,13,-99.99,,,-99.99,tws,2013-05-23 21:00:00,
2013-05-23 14:10:00,94.2,38.3,29.84,SE,135,7.8,9.7,13,-99.99,,,-99.99,tws,2013-05-23 21:10:00,
2013-05-23 14:20:00,94.5,38.4,29.84,East,90,6.4,7.7,13,-99.99,,,-99.99,tws,2013-05-23 21:20:00,
2013-05-23 14:30:00,94.7,37.8,29.84,SE,135,6.5,9.1,13,-99.99,,,-99.99,tws,2013-05-23 21:30:00,
2013-05-23 14:40:00,94.9,38.0,29.84,SSE,157,7.2,10.1,13,-99.99,,,-99.99,tws,2013-05-23 21:40:00,
2013-05-23 14:50:00,95.0,38.0,29.84,SSE,157,7.2,11.4,13,-99.99,,,-99.99,tws,2013-05-23 21:50:00,
2013-05-23 15:00:00,95.0,37.6,29.84,South,180,8.6,11.2,13,-99.99,,,-99.99,tws,2013-05-23 22:00:00,
2013-05-23 15:10:00,94.9,37.4,29.84,NE,45,7.5,8.9,13,-99.99,,,-99.99,tws,2013-05-23 22:10:00,
2013-05-23 15:20:00,95.3,39.2,29.85,SE,135,7.2,13.2,13,-99.99,,,-99.99,tws,2013-05-23 22:20:00,
2013-05-23 15:30:00,95.8,38.5,29.83,East,90,7.6,9.6,13,-99.99,,,-99.99,tws,2013-05-23 22:30:00,
2013-05-23 15:40:00,95.8,39.1,29.83,ESE,112,7.2,9.4,13,-99.99,,,-99.99,tws,2013-05-23 22:40:00,
2013-05-23 15:50:00,96.0,40.0,29.83,SSE,157,6.9,11.7,14,-99.99,,,-99.99,tws,2013-05-23 22:50:00,
2013-05-23 16:00:00,96.2,39.7,29.83,South,180,7.6,11.8,13,-99.99,,,-99.99,tws,2013-05-23 23:00:00,
2013-05-23 16:10:00,96.0,39.5,29.82,ESE,112,6.4,7.9,13,-99.99,,,-99.99,tws,2013-05-23 23:10:00,
2013-05-23 16:20:00,95.7,40.0,29.82,ENE,67,7.2,8.6,14,-99.99,,,-99.99,tws,2013-05-23 23:20:00,
2013-05-23 16:30:00,95.7,41.4,29.83,SE,135,5.8,7.6,14,-99.99,,,-99.99,tws,2013-05-23 23:30:00,
2013-05-23 16:40:00,95.8,40.5,29.81,SE,135,6.7,11.0,14,-99.99,,,-99.99,tws,2013-05-23 23:40:00,
2013-05-23 16:50:00,95.6,40.7,29.80,East,90,7.0,9.2,14,-99.99,,,-99.99,tws,2013-05-23 23:50:00,
2013-05-23 17:00:00,95.3,39.9,29.79,ESE,112,7.2,9.3,14,-99.99,,,-99.99,tws,2013-05-24 00:00:00,
2013-05-23 17:10:00,94.8,39.7,29.80,ESE,112,6.4,8.3,14,-99.99,,,-99.99,tws,2013-05-24 00:10:00,
2013-05-23 17:20:00,94.6,39.7,29.81,South,180,6.1,7.6,14,-99.99,,,-99.99,tws,2013-05-24 00:20:00,
2013-05-23 17:30:00,94.2,39.8,29.81,ENE,67,6.4,9.0,14,-99.99,,,-99.99,tws,2013-05-24 00:30:00,
2013-05-23 17:40:00,93.5,39.1,29.81,East,90,6.5,8.5,14,-99.99,,,-99.99,tws,2013-05-24 00:40:00,
2013-05-23 17:50:00,92.9,39.0,29.80,ESE,112,6.5,8.4,14,-99.99,,,-99.99,tws,2013-05-24 00:50:00,
2013-05-23 18:00:00,92.5,39.0,29.81,SE,135,7.3,9.8,15,-99.99,,,-99.99,tws,2013-05-24 01:00:00,
2013-05-23 18:10:00,92.2,39.2,29.80,SE,135,5.6,8.1,15,-99.99,,,-99.99,tws,2013-05-24 01:10:00,
2013-05-23 18:20:00,91.8,40.0,29.79,SSE,157,5.6,6.6,16,-99.99,,,-99.99,tws,2013-05-24 01:20:00,
2013-05-23 18:30:00,91.4,38.9,29.80,ESE,112,6.6,10.7,15,-99.99,,,-99.99,tws,2013-05-24 01:30:00,
2013-05-23 18:40:00,91.1,38.7,29.80,South,180,8.9,11.4,15,-99.99,,,-99.99,tws,2013-05-24 01:40:00,
2013-05-23 18:50:00,90.6,36.4,29.79,SE,135,8.1,10.7,14,-99.99,,,-99.99,tws,2013-05-24 01:50:00,
2013-05-23 19:00:00,90.1,35.7,29.80,South,180,6.2,8.8,14,-99.99,,,-99.99,tws,2013-05-24 02:00:00,
2013-05-23 19:10:00,89.6,36.6,29.81,SE,135,7.3,9.6,15,-99.99,,,-99.99,tws,2013-05-24 02:10:00,
2013-05-23 19:20:00,89.1,37.5,29.81,SE,135,6.7,7.9,15,-99.99,,,-99.99,tws,2013-05-24 02:20:00,
2013-05-23 19:30:00,88.5,37.2,29.81,East,90,7.3,8.5,16,-99.99,,,-99.99,tws,2013-05-24 02:30:00,
2013-05-23 19:40:00,87.9,37.1,29.82,SE,135,7.1,9.8,16,-99.99,,,-99.99,tws,2013-05-24 02:40:00,
2013-05-23 19:50:00,87.3,36.8,29.82,SE,135,7.0,8.6,16,-99.99,,,-99.99,tws,2013-05-24 02:50:00,
2013-05-23 20:00:00,86.8,36.6,29.82,South,180,5.5,6.1,16,-99.99,,,-99.99,tws,2013-05-24 03:00:00,
2013-05-23 20:10:00,86.3,36.3,29.84,SE,135,4.9,5.9,16,-99.99,,,-99.99,tws,2013-05-24 03:10:00,
2013-05-23 20:20:00,85.8,36.0,29.84,South,180,3.3,4.7,16,-99.99,,,-99.99,tws,2013-05-24 03:20:00,
2013-05-23 20:30:00,85.1,35.2,29.84,SSW,202,4.3,5.5,16,-99.99,,,-99.99,tws,2013-05-24 03:30:00,
2013-05-23 20:40:00,84.3,34.8,29.84,South,180,4.8,6.2,16,-99.99,,,-99.99,tws,2013-05-24 03:40:00,
2013-05-23 20:50:00,83.6,33.3,29.86,South,180,5.0,6.5,16,-99.99,,,-99.99,tws,2013-05-24 03:50:00,
2013-05-23 21:00:00,83.0,32.8,29.86,South,180,6.5,8.4,16,-99.99,,,-99.99,tws,2013-05-24 04:00:00,
2013-05-23 21:10:00,82.4,32.3,29.87,South,180,6.8,8.3,16,-99.99,,,-99.99,tws,2013-05-24 04:10:00,
2013-05-23 21:20:00,82.0,32.2,29.87,South,180,4.3,5.9,16,-99.99,,,-99.99,tws,2013-05-24 04:20:00,
2013-05-23 21:30:00,81.4,31.8,29.88,SW,225,3.9,5.0,16,-99.99,,,-99.99,tws,2013-05-24 04:30:00,
2013-05-23 21:40:00,80.9,31.1,29.89,WSW,247,4.0,4.7,16,-99.99,,,-99.99,tws,2013-05-24 04:40:00,
2013-05-23 21:50:00,80.2,30.1,29.89,South,180,2.3,3.8,15,-99.99,,,-99.99,tws,2013-05-24 04:50:00,
2013-05-23 22:00:00,79.7,30.4,29.90,SW,225,2.9,4.2,16,-99.99,,,-99.99,tws,2013-05-24 05:00:00,
2013-05-23 22:10:00,79.6,31.3,29.90,West,270,0.7,2.5,16,-99.99,,,-99.99,tws,2013-05-24 05:10:00,
2013-05-23 22:20:00,79.1,33.2,29.89,North,0,2.2,3.3,18,-99.99,,,-99.99,tws,2013-05-24 05:20:00,
2013-05-23 22:30:00,78.1,32.9,29.89,NW,315,2.8,4.0,18,-99.99,,,-99.99,tws,2013-05-24 05:30:00,
2013-05-23 22:40:00,77.4,32.7,29.89,West,270,2.3,3.2,19,-99.99,,,-99.99,tws,2013-05-24 05:40:00,
2013-05-23 22:50:00,76.8,32.3,29.90,West,270,1.7,2.4,19,-99.99,,,-99.99,tws,2013-05-24 05:50:00,
2013-05-23 23:00:00,76.3,34.0,29.91,NW,315,1.0,2.1,21,-99.99,,,-99.99,tws,2013-05-24 06:00:00,
2013-05-23 23:10:00,75.8,33.8,29.91,NW,315,0.0,0.0,21,-99.99,,,-99.99,tws,2013-05-24 06:10:00,
2013-05-23 23:20:00,75.1,33.8,29.91,NNW,337,1.3,3.6,21,-99.99,,,-99.99,tws,2013-05-24 06:20:00,
2013-05-23 23:30:00,74.7,33.8,29.91,North,0,0.0,0.0,22,-99.99,,,-99.99,tws,2013-05-24 06:30:00,
2013-05-23 23:40:00,74.3,35.4,29.91,NW,315,0.0,0.0,23,-99.99,,,-99.99,tws,2013-05-24 06:40:00,
2013-05-23 23:50:00,73.7,34.1,29.92,North,0,0.0,0.0,23,-99.99,,,-99.99,tws,2013-05-24 06:50:00,